Time;durP1;ratioP1;P1;durP2;ratioP2;P2;SDS_P1;SDS_P2;PMS_P1;PMS_P2;Temp;Humidity;BMP_temperature;BMP_pressure;BME280_temperature;BME280_humidity;BME280_pressure;Samples;Min_cycle;Max_cycle;Signal;HPM_P1;HPM_P2
2021/04/09 00:02:15;;;;;;;0.20;0.10;;;;;;;1.00;86.25;100598.19;5048800;28;20500;-51
2021/04/09 00:04:41;;;;;;;0.20;0.10;;;;;;;0.89;85.95;100595.41;5042265;28;20465;-50
2021/04/09 00:07:07;;;;;;;0.20;0.13;;;;;;;1.34;85.02;100596.91;5041767;28;20452;-51
2021/04/09 00:09:34;;;;;;;0.30;0.20;;;;;;;1.08;85.22;100585.19;5048010;28;20451;-50
2021/04/09 00:12:01;;;;;;;0.20;0.10;;;;;;;1.04;86.24;100589.50;5048093;28;20982;-50
2021/04/09 00:14:28;;;;;;;0.20;0.10;;;;;;;1.00;85.70;100581.59;5041910;28;20453;-50
2021/04/09 00:16:54;;;;;;;0.20;0.10;;;;;;;0.75;85.96;100586.47;5040679;28;20867;-50
2021/04/09 00:19:24;;;;;;;1.27;1.27;;;;;;;0.88;85.48;100591.03;5041902;28;20490;-50
2021/04/09 00:21:50;;;;;;;0.20;0.10;;;;;;;0.80;86.10;100581.28;5041234;28;20471;-50
2021/04/09 00:24:17;;;;;;;0.20;0.20;;;;;;;0.80;87.11;100578.66;5046895;28;20452;-50
2021/04/09 00:26:43;;;;;;;0.20;0.10;;;;;;;0.71;86.60;100568.09;5047915;28;20447;-50
2021/04/09 00:29:10;;;;;;;0.20;0.10;;;;;;;0.75;86.96;100570.75;5042189;28;20446;-50
2021/04/09 00:31:37;;;;;;;0.20;0.10;;;;;;;0.64;86.81;100563.59;5060301;22;20920;-54
2021/04/09 00:34:04;;;;;;;0.20;0.13;;;;;;;0.53;87.72;100568.66;5057339;28;20458;-55
2021/04/09 00:36:35;;;;;;;0.20;0.10;;;;;;;0.50;87.21;100563.38;5054831;28;20474;-55
2021/04/09 00:39:05;;;;;;;0.20;0.10;;;;;;;0.53;87.46;100566.03;5055208;28;21006;-55
2021/04/09 00:41:31;;;;;;;0.20;0.10;;;;;;;0.43;88.12;100561.53;5051968;28;20470;-55
2021/04/09 00:43:57;;;;;;;0.20;0.10;;;;;;;0.37;88.64;100561.41;5043650;28;20451;-55
2021/04/09 00:46:24;;;;;;;0.20;0.10;;;;;;;0.35;88.47;100552.66;5041830;28;20882;-55
2021/04/09 00:48:50;;;;;;;0.20;0.10;;;;;;;0.43;88.40;100561.53;5044968;28;20512;-55
2021/04/09 00:51:18;;;;;;;0.20;0.20;;;;;;;0.49;87.83;100562.50;5039182;28;20462;-55
2021/04/09 00:53:45;;;;;;;0.20;0.10;;;;;;;0.31;86.78;100556.09;5045535;28;20451;-55
2021/04/09 00:56:15;;;;;;;0.20;0.10;;;;;;;0.21;88.38;100553.31;5051688;28;20458;-55
2021/04/09 00:58:41;;;;;;;0.20;0.10;;;;;;;0.38;88.04;100550.09;5044271;28;21016;-55
2021/04/09 01:01:07;;;;;;;0.20;0.10;;;;;;;0.39;87.62;100551.84;5048036;28;20472;-55
2021/04/09 01:03:34;;;;;;;0.20;0.10;;;;;;;0.29;88.07;100550.84;5038910;28;20456;-55
2021/04/09 01:06:02;;;;;;;0.20;0.10;;;;;;;0.30;88.23;100549.97;5045959;28;20452;-56
2021/04/09 01:08:29;;;;;;;0.20;0.10;;;;;;;0.32;87.57;100545.66;5044467;28;20449;-54
2021/04/09 01:10:57;;;;;;;0.20;0.10;;;;;;;0.22;87.99;100543.72;5040732;28;20892;-55
2021/04/09 01:13:23;;;;;;;0.20;0.10;;;;;;;0.05;88.29;100538.22;5042468;28;20505;-55
2021/04/09 01:15:51;;;;;;;0.20;0.10;;;;;;;-0.17;89.10;100541.28;5047022;28;20594;-55
2021/04/09 01:18:24;;;;;;;0.20;0.10;;;;;;;-0.01;88.50;100543.31;5043265;28;20459;-54
2021/04/09 01:21:32;;;;;;;0.20;0.10;;;;;;;-0.06;88.75;100537.13;5038616;28;20553;-55
2021/04/09 01:24:10;;;;;;;0.20;0.10;;;;;;;-0.07;89.09;100544.09;5037727;28;20454;-54
2021/04/09 01:27:08;;;;;;;0.20;0.10;;;;;;;0.02;87.92;100540.78;5040034;28;20924;-55
2021/04/09 01:29:52;;;;;;;0.20;0.10;;;;;;;-0.11;88.50;100544.03;5044287;28;20933;-55
2021/04/09 01:32:19;;;;;;;0.20;0.10;;;;;;;-0.21;88.64;100534.25;5046257;28;20487;-55
2021/04/09 01:34:51;;;;;;;0.20;0.10;;;;;;;-0.12;89.01;100539.66;5019808;28;20453;-55
2021/04/09 01:37:22;;;;;;;0.20;0.10;;;;;;;-0.09;88.52;100530.13;5040574;28;20501;-55
2021/04/09 01:40:00;;;;;;;0.20;0.10;;;;;;;-0.21;89.49;100529.91;5039312;28;20883;-54
2021/04/09 01:42:28;;;;;;;0.20;0.10;;;;;;;-0.28;88.70;100532.34;5043643;28;20471;-54
2021/04/09 01:44:55;;;;;;;0.20;0.17;;;;;;;-0.42;89.50;100532.97;5046316;28;20510;-54
2021/04/09 01:47:26;;;;;;;0.20;0.10;;;;;;;-0.50;89.48;100523.25;5042887;28;20800;-55
2021/04/09 01:49:55;;;;;;;0.20;0.10;;;;;;;-0.36;89.77;100533.09;5035600;28;20447;-54
2021/04/09 01:52:25;;;;;;;0.20;0.10;;;;;;;-0.49;90.08;100525.88;5045187;28;20529;-54
2021/04/09 01:54:54;;;;;;;0.20;0.10;;;;;;;-0.43;89.94;100528.59;5032978;28;20447;-55
2021/04/09 01:57:24;;;;;;;0.20;0.10;;;;;;;-0.41;90.08;100531.25;5044929;28;20501;-54
2021/04/09 01:59:52;;;;;;;0.30;0.30;;;;;;;-0.43;90.01;100530.34;5039803;28;20490;-55
2021/04/09 02:02:19;;;;;;;0.20;0.10;;;;;;;-0.50;90.52;100526.75;5039159;28;20471;-55
2021/04/09 02:04:47;;;;;;;0.20;0.10;;;;;;;-0.61;90.03;100520.41;5033580;28;20540;-55
2021/04/09 02:07:20;;;;;;;1.23;0.60;;;;;;;-0.52;89.25;100519.72;5045825;28;20451;-55
2021/04/09 02:09:48;;;;;;;0.20;0.10;;;;;;;-0.64;89.96;100518.63;5041911;28;20450;-54
2021/04/09 02:12:16;;;;;;;0.20;0.10;;;;;;;-0.85;90.62;100517.31;5039038;28;21013;-54
2021/04/09 02:14:44;;;;;;;0.20;0.10;;;;;;;-0.88;90.38;100519.84;5042815;28;20456;-55
2021/04/09 02:17:11;;;;;;;0.30;0.27;;;;;;;-0.84;90.40;100517.31;5045622;28;20451;-55
2021/04/09 02:19:40;;;;;;;0.20;0.10;;;;;;;-0.70;90.86;100515.00;5042705;28;21071;-54
2021/04/09 02:22:07;;;;;;;0.20;0.10;;;;;;;-0.85;90.48;100517.31;5039051;28;20470;-55
2021/04/09 02:24:33;;;;;;;0.20;0.10;;;;;;;-0.87;90.81;100519.88;5048161;28;20458;-55
2021/04/09 02:27:00;;;;;;;0.20;0.10;;;;;;;-0.77;90.91;100519.22;5052622;28;20455;-54
2021/04/09 02:29:27;;;;;;;0.20;0.10;;;;;;;-0.88;90.04;100512.91;5050069;28;20455;-54
2021/04/09 02:31:53;;;;;;;0.20;0.10;;;;;;;-0.83;90.25;100513.88;5043909;28;20478;-55
2021/04/09 02:34:20;;;;;;;0.20;0.10;;;;;;;-0.83;90.07;100511.25;5048173;28;20447;-55
2021/04/09 02:36:47;;;;;;;0.20;0.10;;;;;;;-0.88;90.76;100514.63;5052333;28;20451;-54
2021/04/09 02:39:15;;;;;;;0.20;0.10;;;;;;;-0.88;90.52;100514.63;5050489;28;20490;-55
2021/04/09 02:41:44;;;;;;;0.20;0.10;;;;;;;-0.95;90.35;100509.31;5045375;28;20493;-55
2021/04/09 02:44:11;;;;;;;0.70;0.70;;;;;;;-0.99;89.79;100504.84;5047381;28;20479;-56
2021/04/09 02:46:51;;;;;;;0.20;0.10;;;;;;;-0.96;89.74;100506.63;5052100;28;20451;-55
2021/04/09 02:49:27;;;;;;;0.20;0.10;;;;;;;-1.15;90.09;100499.28;5052778;28;20496;-55
2021/04/09 02:51:56;;;;;;;0.20;0.10;;;;;;;-1.22;90.83;100488.72;5047766;28;20466;-55
2021/04/09 02:54:23;;;;;;;0.20;0.10;;;;;;;-1.28;91.86;100493.78;5045706;28;20462;-55
2021/04/09 02:56:51;;;;;;;0.20;0.10;;;;;;;-1.09;91.65;100502.03;5059779;28;20462;-55
2021/04/09 02:59:19;;;;;;;0.20;0.20;;;;;;;-1.15;91.48;100487.09;5045870;28;20545;-54
2021/04/09 03:01:46;;;;;;;0.20;0.10;;;;;;;-1.21;91.41;100494.81;5049596;28;21016;-55
2021/04/09 03:04:14;;;;;;;0.20;0.10;;;;;;;-1.28;91.68;100480.75;5040902;28;20452;-55
2021/04/09 03:06:43;;;;;;;0.20;0.10;;;;;;;-1.21;91.36;100487.88;5049084;28;20511;-55
2021/04/09 03:09:10;;;;;;;0.20;0.10;;;;;;;-1.37;91.46;100480.56;5045567;28;20446;-55
2021/04/09 03:11:37;;;;;;;0.60;0.60;;;;;;;-1.32;91.93;100483.25;5048727;28;20467;-55
2021/04/09 03:14:05;;;;;;;0.20;0.10;;;;;;;-1.29;91.83;100489.41;5052695;28;20948;-55
2021/04/09 03:16:38;;;;;;;0.20;0.10;;;;;;;-1.38;91.38;100485.72;5049864;28;20564;-55
2021/04/09 03:19:05;;;;;;;0.20;0.13;;;;;;;-1.30;92.13;100484.16;5046195;28;20573;-53
2021/04/09 03:21:31;;;;;;;0.20;0.10;;;;;;;-1.53;92.22;100478.44;5047308;28;20494;-58
2021/04/09 03:23:57;;;;;;;0.20;0.20;;;;;;;-1.52;92.75;100481.06;5053320;28;20514;-53
2021/04/09 03:26:23;;;;;;;0.20;0.10;;;;;;;-1.31;93.15;100477.19;5051920;28;20446;-53
2021/04/09 03:28:49;;;;;;;0.20;0.10;;;;;;;-1.46;92.43;100462.09;5046070;28;20794;-53
2021/04/09 03:31:15;;;;;;;0.20;0.10;;;;;;;-1.55;92.93;100467.97;5048054;28;20964;-53
2021/04/09 03:33:41;;;;;;;0.20;0.10;;;;;;;-1.56;93.00;100467.94;5053464;28;20482;-53
2021/04/09 03:36:07;;;;;;;0.20;0.10;;;;;;;-1.54;93.51;100461.03;5047263;28;20516;-53
2021/04/09 03:38:33;;;;;;;0.20;0.10;;;;;;;-1.50;93.17;100461.16;5041444;28;20451;-53
2021/04/09 03:41:00;;;;;;;0.20;0.10;;;;;;;-1.44;92.59;100465.63;5044837;28;20471;-53
2021/04/09 03:43:26;;;;;;;0.20;0.10;;;;;;;-1.44;92.31;100469.94;5048918;28;20451;-53
2021/04/09 03:45:52;;;;;;;0.20;0.10;;;;;;;-1.57;92.42;100469.66;5047446;28;20481;-53
2021/04/09 03:48:18;;;;;;;0.20;0.10;;;;;;;-1.55;93.29;100473.19;5042794;28;20505;-53
2021/04/09 03:50:44;;;;;;;0.20;0.10;;;;;;;-1.71;93.65;100476.28;5044061;28;20467;-53
2021/04/09 03:53:10;;;;;;;0.20;0.10;;;;;;;-1.54;94.01;100468.84;5049954;28;20451;-53
2021/04/09 03:55:37;;;;;;;0.20;0.10;;;;;;;-1.58;94.34;100464.44;5048919;28;20446;-53
2021/04/09 03:58:03;;;;;;;0.20;0.10;;;;;;;-1.54;94.17;100467.13;5050574;28;20506;-53
2021/04/09 04:00:29;;;;;;;0.20;0.10;;;;;;;-1.53;94.00;100454.97;5048342;28;20490;-52
2021/04/09 04:02:55;;;;;;;0.20;0.10;;;;;;;-1.61;94.41;100456.53;5042030;28;20936;-52
2021/04/09 04:05:22;;;;;;;0.20;0.10;;;;;;;-1.43;93.67;100459.56;5031054;28;20526;-52
2021/04/09 04:07:48;;;;;;;0.20;0.10;;;;;;;-1.38;92.54;100465.75;5049085;28;20452;-52
2021/04/09 04:10:15;;;;;;;0.20;0.10;;;;;;;-1.41;93.29;100456.97;5047709;28;20469;-53
2021/04/09 04:12:41;;;;;;;0.20;0.10;;;;;;;-1.54;93.83;100461.03;5042396;28;20447;-53
2021/04/09 04:15:08;;;;;;;0.20;0.10;;;;;;;-1.56;93.72;100452.31;5043546;28;20447;-53
2021/04/09 04:17:34;;;;;;;0.20;0.10;;;;;;;-1.32;93.45;100457.19;5047528;28;20447;-53
2021/04/09 04:20:01;;;;;;;0.20;0.10;;;;;;;-1.46;93.66;100450.78;5046381;28;20487;-53
2021/04/09 04:22:27;;;;;;;0.20;0.10;;;;;;;-1.44;94.46;100446.50;5041441;28;20478;-53
2021/04/09 04:24:53;;;;;;;0.20;0.10;;;;;;;-1.29;94.17;100446.81;5043275;28;20455;-53
2021/04/09 04:27:20;;;;;;;0.20;0.10;;;;;;;-1.46;94.14;100437.75;5048318;28;20452;-53
2021/04/09 04:29:47;;;;;;;0.20;0.10;;;;;;;-1.40;94.49;100440.50;5047240;28;20443;-52
2021/04/09 04:32:13;;;;;;;0.20;0.10;;;;;;;-1.26;93.74;100441.66;5040540;28;20543;-53
2021/04/09 04:34:40;;;;;;;0.20;0.10;;;;;;;-1.29;93.49;100442.47;5041683;28;20479;-53
2021/04/09 04:37:06;;;;;;;0.20;0.10;;;;;;;-1.24;93.58;100439.97;5047936;28;21182;-53
2021/04/09 04:39:32;;;;;;;0.20;0.10;;;;;;;-1.25;93.30;100433.88;5047382;28;20536;-54
2021/04/09 04:41:58;;;;;;;0.20;0.10;;;;;;;-1.30;93.36;100432.91;5041595;28;21017;-53
2021/04/09 04:44:24;;;;;;;0.20;0.10;;;;;;;-1.36;93.62;100438.00;5042449;28;20478;-53
2021/04/09 04:46:50;;;;;;;0.20;0.10;;;;;;;-1.36;93.89;100435.41;5047935;28;20478;-53
2021/04/09 04:49:20;;;;;;;0.20;0.10;;;;;;;-1.42;93.64;100439.56;5047417;28;20447;-54
2021/04/09 04:51:46;;;;;;;0.20;0.10;;;;;;;-1.45;93.02;100437.78;5041855;28;20471;-53
2021/04/09 04:54:13;;;;;;;0.20;0.10;;;;;;;-1.57;94.32;100430.56;5041220;28;20447;-54
2021/04/09 04:56:39;;;;;;;0.20;0.10;;;;;;;-1.53;94.71;100429.78;5054770;28;20459;-53
2021/04/09 04:59:05;;;;;;;0.20;0.10;;;;;;;-1.49;94.44;100422.94;5040502;28;20495;-53
2021/04/09 05:01:31;;;;;;;0.20;0.10;;;;;;;-1.50;94.65;100429.00;5047657;28;20468;-53
2021/04/09 05:03:57;;;;;;;0.20;0.10;;;;;;;-1.55;95.18;100428.88;5036137;28;20941;-53
2021/04/09 05:06:23;;;;;;;0.30;0.20;;;;;;;-1.38;94.70;100431.84;5042633;28;20454;-53
2021/04/09 05:08:49;;;;;;;0.20;0.10;;;;;;;-1.39;94.19;100424.88;5040542;28;20448;-53
2021/04/09 05:11:16;;;;;;;1.10;1.10;;;;;;;-1.07;93.75;100425.56;5046489;28;20892;-53
2021/04/09 05:13:42;;;;;;;0.20;0.10;;;;;;;-0.79;92.91;100428.72;5046745;28;20443;-53
2021/04/09 05:16:08;;;;;;;0.20;0.10;;;;;;;-0.61;91.89;100435.16;5042628;28;20485;-51
2021/04/09 05:18:34;;;;;;;0.20;0.10;;;;;;;-0.10;90.38;100434.34;5042699;28;20530;-52
2021/04/09 05:21:00;;;;;;;0.20;0.10;;;;;;;-0.28;90.34;100433.13;5048849;28;20504;-53
2021/04/09 05:23:27;;;;;;;0.20;0.20;;;;;;;-0.21;91.23;100435.00;5047039;28;20462;-53
2021/04/09 05:25:53;;;;;;;0.20;0.10;;;;;;;-0.01;90.17;100444.91;5040852;28;20496;-52
2021/04/09 05:28:19;;;;;;;0.20;0.10;;;;;;;0.08;90.19;100435.47;5042286;28;20452;-52
2021/04/09 05:30:45;;;;;;;0.20;0.20;;;;;;;0.29;90.01;100433.22;5048269;28;20488;-52
2021/04/09 05:33:11;;;;;;;0.20;0.10;;;;;;;0.28;90.57;100441.91;5048525;28;20447;-52
2021/04/09 05:35:37;;;;;;;0.20;0.10;;;;;;;0.30;90.21;100434.97;5042962;28;20526;-52
2021/04/09 05:38:03;;;;;;;0.30;0.30;;;;;;;0.28;89.75;100439.28;5039385;28;20530;-53
2021/04/09 05:40:29;;;;;;;0.20;0.10;;;;;;;0.42;89.50;100436.88;5045582;28;21066;-52
2021/04/09 05:42:59;;;;;;;0.20;0.10;;;;;;;0.39;89.96;100442.03;5046463;28;20454;-53
2021/04/09 05:45:26;;;;;;;0.20;0.10;;;;;;;0.75;88.43;100428.63;5038507;28;20474;-53
2021/04/09 05:47:53;;;;;;;0.20;0.10;;;;;;;0.75;88.40;100426.88;5029277;28;20530;-53
2021/04/09 05:50:20;;;;;;;0.20;0.10;;;;;;;0.92;88.61;100418.38;5043760;28;20443;-53
2021/04/09 05:52:47;;;;;;;0.20;0.10;;;;;;;0.86;88.86;100412.22;5046366;28;20478;-54
2021/04/09 05:55:14;;;;;;;0.20;0.20;;;;;;;0.96;89.09;100428.00;5044896;28;20450;-53
2021/04/09 05:57:40;;;;;;;0.70;0.70;;;;;;;1.15;88.24;100425.63;5027724;28;20467;-54
2021/04/09 06:00:07;;;;;;;0.20;0.13;;;;;;;1.01;88.28;100418.47;5040407;28;20551;-53
2021/04/09 06:02:35;;;;;;;0.20;0.10;;;;;;;1.13;88.48;100416.03;5039622;28;20493;-53
2021/04/09 06:05:01;;;;;;;0.20;0.10;;;;;;;1.18;88.08;100417.81;5033788;28;20455;-53
2021/04/09 06:07:28;;;;;;;0.30;0.20;;;;;;;1.18;88.84;100406.47;5048407;28;20540;-53
2021/04/09 06:09:54;;;;;;;0.20;0.10;;;;;;;1.29;88.32;100404.84;5044431;28;20443;-53
2021/04/09 06:12:21;;;;;;;0.20;0.10;;;;;;;1.29;88.91;100397.00;5040800;28;20818;-54
2021/04/09 06:14:47;;;;;;;0.30;0.30;;;;;;;1.61;88.03;100397.31;5045115;28;20452;-53
2021/04/09 06:17:14;;;;;;;0.20;0.10;;;;;;;1.56;87.44;100403.38;5048864;28;20505;-59
2021/04/09 06:19:41;;;;;;;0.20;0.10;;;;;;;1.58;88.46;100401.63;5046390;28;20487;-54
2021/04/09 06:22:07;;;;;;;0.20;0.10;;;;;;;1.61;88.63;100399.03;5042041;28;20463;-58
2021/04/09 06:24:33;;;;;;;0.20;0.17;;;;;;;1.74;88.69;100399.16;5044492;28;20462;-55
2021/04/09 06:26:59;;;;;;;0.20;0.10;;;;;;;1.98;87.95;100395.88;5049191;28;20451;-53
2021/04/09 06:29:26;;;;;;;0.20;0.17;;;;;;;1.84;88.70;100400.13;5045841;28;20446;-62
2021/04/09 06:31:52;;;;;;;0.20;0.10;;;;;;;1.93;88.51;100397.59;5065497;23;20862;-57
2021/04/09 06:34:18;;;;;;;2.57;1.60;;;;;;;1.99;89.45;100396.75;5062511;28;20458;-57
2021/04/09 06:36:45;;;;;;;0.67;0.67;;;;;;;2.11;89.46;100389.00;5069540;28;20446;-57
2021/04/09 06:39:11;;;;;;;0.20;0.10;;;;;;;2.13;89.42;100381.13;5071016;28;20535;-56
2021/04/09 06:41:39;;;;;;;0.30;0.20;;;;;;;2.33;89.67;100379.50;5067556;28;20466;-56
2021/04/09 06:44:06;;;;;;;0.20;0.20;;;;;;;2.39;89.37;100376.94;5063219;28;20446;-56
2021/04/09 06:46:33;;;;;;;0.20;0.10;;;;;;;2.61;89.60;100370.94;5058344;28;20457;-57
2021/04/09 06:48:59;;;;;;;0.20;0.10;;;;;;;2.54;89.71;100366.53;5060832;28;20458;-57
2021/04/09 06:51:27;;;;;;;0.20;0.10;;;;;;;2.61;89.14;100370.94;5065199;28;20474;-57
2021/04/09 06:53:54;;;;;;;0.20;0.10;;;;;;;2.72;88.85;100377.97;5063991;28;20993;-57
2021/04/09 06:56:25;;;;;;;0.20;0.20;;;;;;;2.83;88.37;100376.28;5052709;28;20488;-57
2021/04/09 06:58:53;;;;;;;0.20;0.10;;;;;;;2.99;87.46;100378.06;5064648;28;21015;-57
2021/04/09 07:01:22;;;;;;;0.30;0.20;;;;;;;3.23;85.33;100370.28;5058601;28;20523;-56
2021/04/09 07:03:49;;;;;;;0.20;0.17;;;;;;;3.16;85.46;100359.78;5058783;28;20853;-56
2021/04/09 07:06:15;;;;;;;0.20;0.10;;;;;;;3.21;85.43;100358.00;5045521;28;21013;-57
2021/04/09 07:08:43;;;;;;;0.20;0.10;;;;;;;3.34;85.62;100358.94;5058825;28;20450;-57
2021/04/09 07:11:10;;;;;;;0.30;0.20;;;;;;;3.23;85.77;100357.13;5067648;28;20474;-57
2021/04/09 07:13:49;;;;;;;0.20;0.10;;;;;;;3.44;85.98;100353.69;5069160;28;20446;-57
2021/04/09 07:16:16;;;;;;;0.20;0.10;;;;;;;4.05;83.78;100364.19;5064721;28;20472;-57
2021/04/09 07:19:04;;;;;;;0.20;0.10;;;;;;;3.83;83.50;100367.69;5062019;28;20458;-57
2021/04/09 07:21:33;;;;;;;0.20;0.10;;;;;;;3.54;83.62;100368.56;5063294;28;20470;-57
2021/04/09 07:24:17;;;;;;;0.20;0.20;;;;;;;3.77;82.92;100365.97;5068706;28;20511;-57
2021/04/09 07:26:47;;;;;;;0.30;0.10;;;;;;;4.00;81.84;100365.97;5067338;28;21019;-57
2021/04/09 07:29:31;;;;;;;0.30;0.20;;;;;;;4.11;81.82;100358.94;5064341;28;20970;-57
2021/04/09 07:31:59;;;;;;;0.20;0.20;;;;;;;3.94;82.08;100354.56;5061095;28;21040;-55
2021/04/09 07:34:26;;;;;;;0.20;0.10;;;;;;;3.98;81.83;100356.34;5063607;28;20469;-58
2021/04/09 07:36:55;;;;;;;0.30;0.20;;;;;;;3.94;81.59;100347.53;5068295;28;20504;-56
2021/04/09 07:39:35;;;;;;;0.20;0.10;;;;;;;4.07;80.25;100345.78;5067011;28;20489;-57
2021/04/09 07:42:09;;;;;;;0.30;0.20;;;;;;;4.21;79.51;100340.50;5049669;28;20474;-56
2021/04/09 07:44:39;;;;;;;0.20;0.10;;;;;;;4.39;78.88;100329.94;5061464;28;20446;-56
2021/04/09 07:47:11;;;;;;;0.30;0.20;;;;;;;4.77;77.64;100329.78;5066157;28;20548;-56
2021/04/09 07:49:37;;;;;;;0.43;0.40;;;;;;;4.69;77.10;100336.84;5067916;28;20443;-56
2021/04/09 07:52:16;;;;;;;0.30;0.20;;;;;;;4.99;77.32;100327.94;5065167;28;20974;-56
2021/04/09 07:54:42;;;;;;;0.30;0.20;;;;;;;5.34;75.68;100327.69;5061345;28;20446;-57
2021/04/09 07:57:08;;;;;;;0.50;0.20;;;;;;;5.47;75.54;100325.88;5051466;28;20467;-57
2021/04/09 07:59:39;;;;;;;0.30;0.17;;;;;;;5.58;75.43;100314.34;5066742;28;20486;-57
2021/04/09 08:02:06;;;;;;;0.30;0.20;;;;;;;5.82;73.58;100320.31;5067265;28;20466;-57
2021/04/09 08:04:36;;;;;;;0.30;0.20;;;;;;;5.76;73.07;100318.63;5060950;28;20481;-56
2021/04/09 08:07:04;;;;;;;0.30;0.20;;;;;;;5.97;73.39;100307.03;5061779;28;21034;-57
2021/04/09 08:09:49;;;;;;;0.30;0.20;;;;;;;6.75;71.75;100299.09;5068414;28;20451;-57
2021/04/09 08:12:33;;;;;;;2.10;1.70;;;;;;;7.06;70.19;100299.56;5067603;28;20982;-57
2021/04/09 08:15:29;;;;;;;2.20;2.20;;;;;;;7.30;68.54;100285.09;5065997;28;20445;-57
2021/04/09 08:18:01;;;;;;;0.30;0.10;;;;;;;6.73;71.51;100294.75;5052785;28;20441;-57
2021/04/09 08:20:31;;;;;;;0.30;0.20;;;;;;;7.14;71.30;100302.09;5060342;28;20500;-57
2021/04/09 08:23:01;;;;;;;0.30;0.10;;;;;;;7.28;71.13;100302.78;5064286;28;20455;-57
2021/04/09 08:25:28;;;;;;;0.30;0.20;;;;;;;7.68;69.00;100296.84;5067840;28;20873;-57
2021/04/09 08:27:57;;;;;;;0.30;0.20;;;;;;;7.77;66.33;100301.97;5064891;28;20874;-57
2021/04/09 08:30:24;;;;;;;0.30;0.20;;;;;;;7.80;65.73;100304.56;5060614;28;20449;-57
2021/04/09 08:32:53;;;;;;;0.30;0.20;;;;;;;8.07;64.47;100307.63;5061859;28;20819;-57
2021/04/09 08:35:21;;;;;;;0.30;0.20;;;;;;;8.13;62.53;100308.41;5041132;28;20960;-57
2021/04/09 08:37:48;;;;;;;0.30;0.20;;;;;;;7.73;62.53;100306.44;5066008;28;20873;-57
2021/04/09 08:40:17;;;;;;;0.30;0.20;;;;;;;8.49;62.55;100311.25;5060123;28;20517;-57
2021/04/09 08:42:44;;;;;;;0.77;0.77;;;;;;;8.12;61.87;100301.34;5061094;28;20545;-56
2021/04/09 08:45:12;;;;;;;0.30;0.17;;;;;;;8.20;62.70;100302.06;5066155;28;20846;-57
2021/04/09 08:47:39;;;;;;;0.30;0.20;;;;;;;8.30;61.21;100295.72;5067299;28;20450;-57
2021/04/09 08:50:09;;;;;;;0.30;0.20;;;;;;;8.58;61.98;100298.72;5054120;28;20443;-57
2021/04/09 08:52:44;;;;;;;0.30;0.20;;;;;;;8.39;61.39;100289.41;5067061;28;20481;-57
2021/04/09 08:55:12;;;;;;;0.30;0.10;;;;;;;8.29;61.19;100290.44;5062322;28;20445;-57
2021/04/09 08:57:44;;;;;;;0.30;0.20;;;;;;;8.39;62.01;100288.53;5070881;28;20962;-57
2021/04/09 09:00:17;;;;;;;0.30;0.20;;;;;;;8.99;60.87;100286.34;5063549;28;21032;-57
2021/04/09 09:02:49;;;;;;;0.30;0.20;;;;;;;9.22;59.71;100269.94;5059977;28;20466;-57
2021/04/09 09:05:33;;;;;;;0.40;0.40;;;;;;;9.38;58.63;100267.78;5050256;28;20553;-57
2021/04/09 09:08:03;;;;;;;0.30;0.20;;;;;;;9.83;58.93;100257.78;5060780;28;20454;-58
2021/04/09 09:10:29;;;;;;;0.30;0.20;;;;;;;9.70;58.36;100246.63;5058862;28;20790;-55
2021/04/09 09:13:05;;;;;;;0.30;0.20;;;;;;;9.50;58.46;100244.50;5065388;28;20454;-58
2021/04/09 09:15:46;;;;;;;0.30;0.20;;;;;;;9.55;58.51;100248.78;5066895;28;20456;-56
2021/04/09 09:18:21;;;;;;;0.40;0.30;;;;;;;9.80;58.02;100244.59;5064209;28;20449;-56
2021/04/09 09:21:09;;;;;;;0.40;0.40;;;;;;;9.96;57.90;100237.09;5059726;28;20493;-56
2021/04/09 09:23:50;;;;;;;0.30;0.20;;;;;;;10.03;57.98;100238.69;5059855;28;20447;-56
2021/04/09 09:26:23;;;;;;;0.57;0.57;;;;;;;10.24;58.38;100235.47;5062566;28;20977;-56
2021/04/09 09:29:25;;;;;;;0.30;0.20;;;;;;;10.06;58.00;100238.59;5066265;28;20838;-56
2021/04/09 09:32:05;;;;;;;0.30;0.20;;;;;;;10.18;57.85;100240.94;5065894;28;20486;-57
2021/04/09 09:34:37;;;;;;;0.40;0.40;;;;;;;10.31;57.78;100244.16;5041248;28;20511;-57
2021/04/09 09:37:15;;;;;;;0.30;0.20;;;;;;;10.55;56.63;100231.91;5065224;28;20935;-58
2021/04/09 09:39:51;;;;;;;0.30;0.20;;;;;;;10.95;56.93;100219.16;5066333;28;20490;-57
2021/04/09 09:42:27;;;;;;;0.30;0.20;;;;;;;11.36;55.67;100211.63;5061629;28;20607;-58
2021/04/09 09:44:58;;;;;;;0.30;0.20;;;;;;;11.17;54.91;100207.84;5059122;28;20519;-58
2021/04/09 09:47:25;;;;;;;0.40;0.40;;;;;;;11.28;55.98;100209.25;5061843;28;20509;-58
2021/04/09 09:50:04;;;;;;;0.30;0.20;;;;;;;11.58;55.11;100207.34;5064335;28;20443;-58
2021/04/09 09:53:03;;;;;;;0.30;0.20;;;;;;;11.49;54.46;100207.66;5065929;28;20469;-58
2021/04/09 09:55:29;;;;;;;0.30;0.20;;;;;;;11.43;55.44;100205.22;5064160;28;20454;-58
2021/04/09 09:58:09;;;;;;;0.30;0.20;;;;;;;11.51;54.74;100196.94;5067641;28;20484;-57
2021/04/09 10:00:44;;;;;;;0.30;0.20;;;;;;;11.79;54.28;100195.13;5065887;28;20574;-57
2021/04/09 10:03:15;;;;;;;0.30;0.20;;;;;;;12.19;53.78;100198.13;5047302;28;20456;-57
2021/04/09 10:05:50;;;;;;;0.40;0.40;;;;;;;12.32;52.77;100194.09;5048918;28;20870;-58
2021/04/09 10:08:17;;;;;;;0.30;0.20;;;;;;;12.20;52.58;100189.22;5063135;28;20453;-58
2021/04/09 10:10:50;;;;;;;0.30;0.20;;;;;;;12.10;51.93;100188.72;5055114;28;20469;-58
2021/04/09 10:13:22;;;;;;;0.30;0.20;;;;;;;11.86;51.98;100183.31;5062360;28;20498;-58
2021/04/09 10:15:51;;;;;;;0.30;0.20;;;;;;;12.15;51.99;100171.59;5065822;28;20501;-58
2021/04/09 10:18:21;;;;;;;0.30;0.20;;;;;;;12.37;52.80;100171.69;5064722;28;20453;-58
2021/04/09 10:20:50;;;;;;;0.30;0.20;;;;;;;12.18;52.07;100159.09;5058468;28;20504;-58
2021/04/09 10:23:22;;;;;;;0.30;0.20;;;;;;;12.18;52.61;100153.75;5059890;28;20462;-58
2021/04/09 10:25:52;;;;;;;0.30;0.20;;;;;;;12.43;53.12;100149.25;5064699;28;20500;-57
2021/04/09 10:28:18;;;;;;;0.60;0.60;;;;;;;12.83;52.17;100155.69;5065766;28;20446;-58
2021/04/09 10:30:44;;;;;;;0.30;0.20;;;;;;;12.71;52.13;100152.56;5058864;28;20469;-58
2021/04/09 10:33:11;;;;;;;0.30;0.20;;;;;;;12.53;52.24;100149.78;5058544;28;20451;-58
2021/04/09 10:35:37;;;;;;;0.30;0.20;;;;;;;12.81;51.44;100146.88;5065233;28;20451;-57
2021/04/09 10:38:14;;;;;;;0.30;0.20;;;;;;;13.09;49.61;100139.50;5065643;28;20457;-57
2021/04/09 10:40:55;;;;;;;0.50;0.50;;;;;;;13.00;48.38;100135.41;5059458;28;20492;-57
2021/04/09 10:43:32;;;;;;;0.30;0.20;;;;;;;13.17;48.31;100128.50;5058364;28;20453;-57
2021/04/09 10:46:13;;;;;;;0.30;0.20;;;;;;;13.61;47.77;100127.50;5064099;28;20814;-57
2021/04/09 10:48:40;;;;;;;0.43;0.43;;;;;;;13.83;48.50;100121.19;5051852;28;20452;-57
2021/04/09 10:51:08;;;;;;;0.33;0.27;;;;;;;13.76;46.98;100122.44;5062644;28;21048;-58
2021/04/09 10:53:42;;;;;;;0.30;0.20;;;;;;;13.77;47.61;100127.69;5065435;28;20449;-57
2021/04/09 10:56:11;;;;;;;0.30;0.20;;;;;;;13.88;46.85;100119.22;5065755;28;20952;-58
2021/04/09 10:58:40;;;;;;;0.30;0.20;;;;;;;13.86;46.80;100116.63;5057784;28;20456;-57
2021/04/09 11:01:07;;;;;;;0.50;0.50;;;;;;;13.93;46.93;100107.38;5062566;28;20546;-57
2021/04/09 11:03:52;;;;;;;0.30;0.20;;;;;;;14.23;46.50;100105.09;5064813;28;20452;-56
2021/04/09 11:06:20;;;;;;;6.93;4.53;;;;;;;14.50;45.61;100104.75;5063264;28;20446;-56
2021/04/09 11:08:55;;;;;;;0.30;0.20;;;;;;;14.31;45.31;100098.53;5062498;28;20812;-56
2021/04/09 11:11:29;;;;;;;0.30;0.20;;;;;;;14.30;44.70;100097.66;5066445;28;20981;-56
2021/04/09 11:14:12;;;;;;;0.30;0.20;;;;;;;14.10;44.60;100097.72;5069147;28;20458;-56
2021/04/09 11:16:57;;;;;;;0.30;0.20;;;;;;;14.30;44.09;100086.97;5068389;28;20536;-56
2021/04/09 11:19:34;;;;;;;0.30;0.20;;;;;;;14.44;44.31;100081.00;5054860;28;21052;-56
2021/04/09 11:22:03;;;;;;;0.40;0.30;;;;;;;14.68;43.67;100082.50;5061941;28;20473;-56
2021/04/09 11:24:36;;;;;;;0.40;0.30;;;;;;;15.08;42.63;100088.56;5064921;28;20453;-56
2021/04/09 11:27:26;;;;;;;0.40;0.37;;;;;;;15.14;43.09;100072.16;5063117;28;20529;-57
2021/04/09 11:30:23;;;;;;;0.30;0.20;;;;;;;15.20;43.03;100079.00;5062021;28;20443;-57
2021/04/09 11:32:52;;;;;;;1.07;1.07;;;;;;;15.03;42.68;100074.50;5062606;28;20466;-57
2021/04/09 11:35:20;;;;;;;0.40;0.20;;;;;;;14.99;43.15;100064.91;5045424;28;20457;-57
2021/04/09 11:37:55;;;;;;;0.40;0.20;;;;;;;15.51;42.48;100056.88;5068544;28;20454;-57
2021/04/09 11:40:41;;;;;;;0.40;0.20;;;;;;;14.98;42.25;100050.66;5050428;28;20846;-57
2021/04/09 11:43:12;;;;;;;0.50;0.50;;;;;;;15.15;42.31;100039.09;5061553;28;20481;-57